sensor_id;sensor_type;location;lat;lon;timestamp;temperature;humidity
15630;DHT22;7914;50.842;0.166;2023-08-24T00:00:38;17.40;100.00
15630;DHT22;7914;50.842;0.166;2023-08-24T00:03:04;17.50;100.00
15630;DHT22;7914;50.842;0.166;2023-08-24T00:05:33;17.40;100.00
15630;DHT22;7914;50.842;0.166;2023-08-24T00:07:58;17.40;100.00
15630;DHT22;7914;50.842;0.166;2023-08-24T00:10:25;17.50;100.00
15630;DHT22;7914;50.842;0.166;2023-08-24T00:12:51;17.60;100.00
15630;DHT22;7914;50.842;0.166;2023-08-24T00:15:16;17.50;100.00
15630;DHT22;7914;50.842;0.166;2023-08-24T00:17:42;17.40;100.00
15630;DHT22;7914;50.842;0.166;2023-08-24T00:20:08;17.40;100.00
15630;DHT22;7914;50.842;0.166;2023-08-24T00:22:40;17.40;100.00
15630;DHT22;7914;50.842;0.166;2023-08-24T00:25:07;17.40;100.00
15630;DHT22;7914;50.842;0.166;2023-08-24T00:27:33;17.50;100.00
15630;DHT22;7914;50.842;0.166;2023-08-24T00:30:02;17.60;100.00
15630;DHT22;7914;50.842;0.166;2023-08-24T00:32:29;17.60;100.00
15630;DHT22;7914;50.842;0.166;2023-08-24T00:34:55;17.50;100.00
15630;DHT22;7914;50.842;0.166;2023-08-24T00:37:21;17.50;100.00
15630;DHT22;7914;50.842;0.166;2023-08-24T00:39:47;17.50;100.00
15630;DHT22;7914;50.842;0.166;2023-08-24T00:42:12;17.40;100.00
15630;DHT22;7914;50.842;0.166;2023-08-24T00:44:41;17.40;100.00
15630;DHT22;7914;50.842;0.166;2023-08-24T00:47:08;17.30;100.00
15630;DHT22;7914;50.842;0.166;2023-08-24T00:49:34;17.20;100.00
15630;DHT22;7914;50.842;0.166;2023-08-24T00:52:00;17.20;100.00
15630;DHT22;7914;50.842;0.166;2023-08-24T00:54:26;17.20;100.00
15630;DHT22;7914;50.842;0.166;2023-08-24T00:56:52;17.20;100.00
15630;DHT22;7914;50.842;0.166;2023-08-24T00:59:19;17.20;100.00
15630;DHT22;7914;50.842;0.166;2023-08-24T01:01:45;17.20;100.00
15630;DHT22;7914;50.842;0.166;2023-08-24T01:04:12;17.20;100.00
15630;DHT22;7914;50.842;0.166;2023-08-24T01:06:38;17.10;100.00
15630;DHT22;7914;50.842;0.166;2023-08-24T01:09:04;17.10;100.00
15630;DHT22;7914;50.842;0.166;2023-08-24T01:14:23;17.10;100.00
15630;DHT22;7914;50.842;0.166;2023-08-24T01:16:50;17.20;100.00
15630;DHT22;7914;50.842;0.166;2023-08-24T01:19:39;17.20;100.00
15630;DHT22;7914;50.842;0.166;2023-08-24T01:22:31;17.10;100.00
15630;DHT22;7914;50.842;0.166;2023-08-24T01:25:16;17.10;100.00
15630;DHT22;7914;50.842;0.166;2023-08-24T01:27:43;17.10;100.00
15630;DHT22;7914;50.842;0.166;2023-08-24T01:30:10;17.10;100.00
15630;DHT22;7914;50.842;0.166;2023-08-24T01:32:36;17.20;100.00
15630;DHT22;7914;50.842;0.166;2023-08-24T01:35:04;17.10;100.00
15630;DHT22;7914;50.842;0.166;2023-08-24T01:37:31;17.10;100.00
15630;DHT22;7914;50.842;0.166;2023-08-24T01:42:50;17.20;100.00
15630;DHT22;7914;50.842;0.166;2023-08-24T01:45:17;17.20;100.00
15630;DHT22;7914;50.842;0.166;2023-08-24T01:47:45;17.20;100.00
15630;DHT22;7914;50.842;0.166;2023-08-24T01:50:13;17.20;100.00
15630;DHT22;7914;50.842;0.166;2023-08-24T01:52:40;17.30;100.00
15630;DHT22;7914;50.842;0.166;2023-08-24T01:55:06;17.30;100.00
15630;DHT22;7914;50.842;0.166;2023-08-24T01:57:32;17.30;100.00
15630;DHT22;7914;50.842;0.166;2023-08-24T01:59:57;17.30;100.00
15630;DHT22;7914;50.842;0.166;2023-08-24T02:02:24;17.30;100.00
15630;DHT22;7914;50.842;0.166;2023-08-24T02:04:50;17.20;100.00
15630;DHT22;7914;50.842;0.166;2023-08-24T02:07:16;17.20;100.00
15630;DHT22;7914;50.842;0.166;2023-08-24T02:09:42;17.20;100.00
15630;DHT22;7914;50.842;0.166;2023-08-24T02:12:07;17.30;100.00
15630;DHT22;7914;50.842;0.166;2023-08-24T02:14:33;17.30;100.00
15630;DHT22;7914;50.842;0.166;2023-08-24T02:16:59;17.20;100.00
15630;DHT22;7914;50.842;0.166;2023-08-24T02:19:24;17.20;100.00
15630;DHT22;7914;50.842;0.166;2023-08-24T02:21:50;17.20;100.00
15630;DHT22;7914;50.842;0.166;2023-08-24T02:24:16;17.10;100.00
15630;DHT22;7914;50.842;0.166;2023-08-24T02:26:41;17.10;100.00
15630;DHT22;7914;50.842;0.166;2023-08-24T02:29:07;17.10;100.00
15630;DHT22;7914;50.842;0.166;2023-08-24T02:31:33;17.10;100.00
15630;DHT22;7914;50.842;0.166;2023-08-24T02:33:59;17.00;100.00
15630;DHT22;7914;50.842;0.166;2023-08-24T02:36:24;17.10;100.00
15630;DHT22;7914;50.842;0.166;2023-08-24T02:38:50;17.10;100.00
15630;DHT22;7914;50.842;0.166;2023-08-24T02:41:16;17.10;100.00
15630;DHT22;7914;50.842;0.166;2023-08-24T02:43:41;17.10;100.00
15630;DHT22;7914;50.842;0.166;2023-08-24T02:46:08;17.00;100.00
15630;DHT22;7914;50.842;0.166;2023-08-24T02:48:34;16.90;100.00
15630;DHT22;7914;50.842;0.166;2023-08-24T02:51:00;16.90;100.00
15630;DHT22;7914;50.842;0.166;2023-08-24T02:53:28;16.90;100.00
15630;DHT22;7914;50.842;0.166;2023-08-24T02:55:54;16.90;100.00
15630;DHT22;7914;50.842;0.166;2023-08-24T02:58:20;17.00;100.00
15630;DHT22;7914;50.842;0.166;2023-08-24T03:00:46;17.00;100.00
15630;DHT22;7914;50.842;0.166;2023-08-24T03:03:13;17.00;100.00
15630;DHT22;7914;50.842;0.166;2023-08-24T03:05:40;17.10;100.00
15630;DHT22;7914;50.842;0.166;2023-08-24T03:08:06;17.10;100.00
15630;DHT22;7914;50.842;0.166;2023-08-24T03:10:35;17.20;100.00
15630;DHT22;7914;50.842;0.166;2023-08-24T03:13:01;17.40;100.00
15630;DHT22;7914;50.842;0.166;2023-08-24T03:15:28;17.70;100.00
15630;DHT22;7914;50.842;0.166;2023-08-24T03:17:54;17.80;100.00
15630;DHT22;7914;50.842;0.166;2023-08-24T03:20:19;17.80;100.00
15630;DHT22;7914;50.842;0.166;2023-08-24T03:22:45;17.70;100.00
15630;DHT22;7914;50.842;0.166;2023-08-24T03:25:11;17.50;100.00
15630;DHT22;7914;50.842;0.166;2023-08-24T03:27:38;17.50;100.00
15630;DHT22;7914;50.842;0.166;2023-08-24T03:30:04;17.60;100.00
15630;DHT22;7914;50.842;0.166;2023-08-24T03:32:30;17.60;100.00
15630;DHT22;7914;50.842;0.166;2023-08-24T03:34:59;17.60;100.00
15630;DHT22;7914;50.842;0.166;2023-08-24T03:37:25;17.60;100.00
15630;DHT22;7914;50.842;0.166;2023-08-24T03:39:51;17.60;100.00
15630;DHT22;7914;50.842;0.166;2023-08-24T03:42:16;17.40;100.00
15630;DHT22;7914;50.842;0.166;2023-08-24T03:44:42;17.40;100.00
15630;DHT22;7914;50.842;0.166;2023-08-24T03:47:08;17.30;100.00
15630;DHT22;7914;50.842;0.166;2023-08-24T03:49:34;17.20;100.00
15630;DHT22;7914;50.842;0.166;2023-08-24T03:52:00;17.10;100.00
15630;DHT22;7914;50.842;0.166;2023-08-24T03:54:25;17.00;100.00
15630;DHT22;7914;50.842;0.166;2023-08-24T03:56:51;17.00;100.00
15630;DHT22;7914;50.842;0.166;2023-08-24T03:59:17;16.90;100.00
15630;DHT22;7914;50.842;0.166;2023-08-24T04:01:43;16.90;100.00
15630;DHT22;7914;50.842;0.166;2023-08-24T04:04:08;17.00;100.00
15630;DHT22;7914;50.842;0.166;2023-08-24T04:06:34;17.00;100.00
15630;DHT22;7914;50.842;0.166;2023-08-24T04:08:59;17.00;100.00
15630;DHT22;7914;50.842;0.166;2023-08-24T04:11:25;17.10;100.00
15630;DHT22;7914;50.842;0.166;2023-08-24T04:13:51;17.10;100.00
15630;DHT22;7914;50.842;0.166;2023-08-24T04:16:17;17.10;100.00
15630;DHT22;7914;50.842;0.166;2023-08-24T04:18:42;17.10;100.00
15630;DHT22;7914;50.842;0.166;2023-08-24T04:21:08;17.10;100.00
15630;DHT22;7914;50.842;0.166;2023-08-24T04:23:34;17.10;100.00
15630;DHT22;7914;50.842;0.166;2023-08-24T04:25:59;17.10;100.00
15630;DHT22;7914;50.842;0.166;2023-08-24T04:28:25;17.10;100.00
15630;DHT22;7914;50.842;0.166;2023-08-24T04:30:54;17.20;100.00
15630;DHT22;7914;50.842;0.166;2023-08-24T04:33:20;17.10;100.00
15630;DHT22;7914;50.842;0.166;2023-08-24T04:35:49;17.10;100.00
15630;DHT22;7914;50.842;0.166;2023-08-24T04:38:16;17.00;100.00
15630;DHT22;7914;50.842;0.166;2023-08-24T04:40:59;17.00;100.00
15630;DHT22;7914;50.842;0.166;2023-08-24T04:43:25;17.00;100.00
15630;DHT22;7914;50.842;0.166;2023-08-24T04:45:53;16.90;100.00
15630;DHT22;7914;50.842;0.166;2023-08-24T04:48:23;16.90;100.00
15630;DHT22;7914;50.842;0.166;2023-08-24T04:50:50;16.90;100.00
15630;DHT22;7914;50.842;0.166;2023-08-24T04:53:19;16.80;100.00
15630;DHT22;7914;50.842;0.166;2023-08-24T04:55:46;16.80;100.00
15630;DHT22;7914;50.842;0.166;2023-08-24T04:58:12;16.80;100.00
15630;DHT22;7914;50.842;0.166;2023-08-24T05:00:41;16.80;100.00
15630;DHT22;7914;50.842;0.166;2023-08-24T05:03:07;16.80;100.00
15630;DHT22;7914;50.842;0.166;2023-08-24T05:05:34;16.80;100.00
15630;DHT22;7914;50.842;0.166;2023-08-24T05:08:01;16.80;100.00
15630;DHT22;7914;50.842;0.166;2023-08-24T05:10:30;16.70;100.00
15630;DHT22;7914;50.842;0.166;2023-08-24T05:12:56;16.70;100.00
15630;DHT22;7914;50.842;0.166;2023-08-24T05:15:22;16.70;100.00
15630;DHT22;7914;50.842;0.166;2023-08-24T05:17:48;16.80;100.00
15630;DHT22;7914;50.842;0.166;2023-08-24T05:20:14;16.80;100.00
15630;DHT22;7914;50.842;0.166;2023-08-24T05:22:40;16.80;100.00
15630;DHT22;7914;50.842;0.166;2023-08-24T05:25:06;16.80;100.00
15630;DHT22;7914;50.842;0.166;2023-08-24T05:27:32;16.90;100.00
15630;DHT22;7914;50.842;0.166;2023-08-24T05:29:57;16.90;100.00
15630;DHT22;7914;50.842;0.166;2023-08-24T05:32:23;17.00;100.00
15630;DHT22;7914;50.842;0.166;2023-08-24T05:34:49;17.00;100.00
15630;DHT22;7914;50.842;0.166;2023-08-24T05:37:14;17.10;100.00
15630;DHT22;7914;50.842;0.166;2023-08-24T05:39:40;17.00;100.00
15630;DHT22;7914;50.842;0.166;2023-08-24T05:42:07;17.00;100.00
15630;DHT22;7914;50.842;0.166;2023-08-24T05:44:33;17.00;100.00
15630;DHT22;7914;50.842;0.166;2023-08-24T05:46:59;17.00;100.00
15630;DHT22;7914;50.842;0.166;2023-08-24T05:49:24;17.00;100.00
15630;DHT22;7914;50.842;0.166;2023-08-24T05:51:51;17.00;100.00
15630;DHT22;7914;50.842;0.166;2023-08-24T05:54:17;17.10;100.00
15630;DHT22;7914;50.842;0.166;2023-08-24T05:56:46;17.10;100.00
15630;DHT22;7914;50.842;0.166;2023-08-24T05:59:13;17.10;100.00
15630;DHT22;7914;50.842;0.166;2023-08-24T06:01:39;17.10;100.00
15630;DHT22;7914;50.842;0.166;2023-08-24T06:04:05;17.10;100.00
15630;DHT22;7914;50.842;0.166;2023-08-24T06:06:31;17.20;100.00
15630;DHT22;7914;50.842;0.166;2023-08-24T06:08:57;17.20;100.00
15630;DHT22;7914;50.842;0.166;2023-08-24T06:11:22;17.30;100.00
15630;DHT22;7914;50.842;0.166;2023-08-24T06:13:49;17.30;100.00
15630;DHT22;7914;50.842;0.166;2023-08-24T06:16:14;17.30;100.00
15630;DHT22;7914;50.842;0.166;2023-08-24T06:18:40;17.20;100.00
15630;DHT22;7914;50.842;0.166;2023-08-24T06:21:06;17.20;100.00
15630;DHT22;7914;50.842;0.166;2023-08-24T06:23:33;17.20;100.00
15630;DHT22;7914;50.842;0.166;2023-08-24T06:25:59;17.20;100.00
15630;DHT22;7914;50.842;0.166;2023-08-24T06:28:27;17.20;100.00
15630;DHT22;7914;50.842;0.166;2023-08-24T06:30:55;17.20;100.00
15630;DHT22;7914;50.842;0.166;2023-08-24T06:33:20;17.30;100.00
15630;DHT22;7914;50.842;0.166;2023-08-24T06:35:46;17.40;100.00
15630;DHT22;7914;50.842;0.166;2023-08-24T06:38:12;17.30;100.00
15630;DHT22;7914;50.842;0.166;2023-08-24T06:40:39;17.30;100.00
15630;DHT22;7914;50.842;0.166;2023-08-24T06:43:04;17.30;100.00
15630;DHT22;7914;50.842;0.166;2023-08-24T06:45:31;17.30;100.00
15630;DHT22;7914;50.842;0.166;2023-08-24T06:47:56;17.30;100.00
15630;DHT22;7914;50.842;0.166;2023-08-24T06:50:22;17.30;100.00
15630;DHT22;7914;50.842;0.166;2023-08-24T06:52:48;17.30;100.00
15630;DHT22;7914;50.842;0.166;2023-08-24T06:55:14;17.30;100.00
15630;DHT22;7914;50.842;0.166;2023-08-24T06:57:40;17.20;100.00
15630;DHT22;7914;50.842;0.166;2023-08-24T07:00:06;17.20;100.00
15630;DHT22;7914;50.842;0.166;2023-08-24T07:02:37;17.20;100.00
15630;DHT22;7914;50.842;0.166;2023-08-24T07:05:03;17.20;100.00
15630;DHT22;7914;50.842;0.166;2023-08-24T07:07:34;17.20;100.00
15630;DHT22;7914;50.842;0.166;2023-08-24T07:10:00;17.20;100.00
15630;DHT22;7914;50.842;0.166;2023-08-24T07:12:26;17.20;100.00
15630;DHT22;7914;50.842;0.166;2023-08-24T07:14:51;17.30;100.00
15630;DHT22;7914;50.842;0.166;2023-08-24T07:17:17;17.30;100.00
15630;DHT22;7914;50.842;0.166;2023-08-24T07:19:43;17.20;100.00
15630;DHT22;7914;50.842;0.166;2023-08-24T07:22:09;17.30;100.00
15630;DHT22;7914;50.842;0.166;2023-08-24T07:24:35;17.30;100.00
15630;DHT22;7914;50.842;0.166;2023-08-24T07:27:02;17.30;100.00
15630;DHT22;7914;50.842;0.166;2023-08-24T07:29:30;17.30;100.00
15630;DHT22;7914;50.842;0.166;2023-08-24T07:31:57;17.30;100.00
15630;DHT22;7914;50.842;0.166;2023-08-24T07:34:22;17.30;100.00
15630;DHT22;7914;50.842;0.166;2023-08-24T07:36:49;17.40;100.00
15630;DHT22;7914;50.842;0.166;2023-08-24T07:39:15;17.50;100.00
15630;DHT22;7914;50.842;0.166;2023-08-24T07:41:44;17.50;100.00
15630;DHT22;7914;50.842;0.166;2023-08-24T07:44:10;17.50;100.00
15630;DHT22;7914;50.842;0.166;2023-08-24T07:46:38;17.60;100.00
15630;DHT22;7914;50.842;0.166;2023-08-24T07:49:03;17.70;100.00
15630;DHT22;7914;50.842;0.166;2023-08-24T07:51:29;17.80;100.00
15630;DHT22;7914;50.842;0.166;2023-08-24T07:53:55;17.90;100.00
15630;DHT22;7914;50.842;0.166;2023-08-24T07:56:21;17.90;100.00
15630;DHT22;7914;50.842;0.166;2023-08-24T07:58:48;17.90;100.00
15630;DHT22;7914;50.842;0.166;2023-08-24T08:01:13;18.00;100.00
15630;DHT22;7914;50.842;0.166;2023-08-24T08:03:39;18.00;100.00
15630;DHT22;7914;50.842;0.166;2023-08-24T08:06:05;18.00;100.00
15630;DHT22;7914;50.842;0.166;2023-08-24T08:08:31;18.00;100.00
15630;DHT22;7914;50.842;0.166;2023-08-24T08:11:01;18.20;100.00
15630;DHT22;7914;50.842;0.166;2023-08-24T08:13:28;18.40;100.00
15630;DHT22;7914;50.842;0.166;2023-08-24T08:16:03;18.60;100.00
15630;DHT22;7914;50.842;0.166;2023-08-24T08:18:29;18.80;100.00
15630;DHT22;7914;50.842;0.166;2023-08-24T08:20:55;18.90;100.00
15630;DHT22;7914;50.842;0.166;2023-08-24T08:23:21;19.10;100.00
15630;DHT22;7914;50.842;0.166;2023-08-24T08:25:46;19.30;100.00
15630;DHT22;7914;50.842;0.166;2023-08-24T08:28:12;19.60;100.00
15630;DHT22;7914;50.842;0.166;2023-08-24T08:30:38;19.70;100.00
15630;DHT22;7914;50.842;0.166;2023-08-24T08:33:03;19.90;100.00
15630;DHT22;7914;50.842;0.166;2023-08-24T08:35:30;20.00;100.00
15630;DHT22;7914;50.842;0.166;2023-08-24T08:37:55;19.90;100.00
15630;DHT22;7914;50.842;0.166;2023-08-24T08:40:21;19.90;100.00
15630;DHT22;7914;50.842;0.166;2023-08-24T08:42:50;20.00;100.00
15630;DHT22;7914;50.842;0.166;2023-08-24T08:45:16;19.80;100.00
15630;DHT22;7914;50.842;0.166;2023-08-24T08:47:44;20.00;100.00
15630;DHT22;7914;50.842;0.166;2023-08-24T08:50:10;20.10;100.00
15630;DHT22;7914;50.842;0.166;2023-08-24T08:52:36;20.10;100.00
15630;DHT22;7914;50.842;0.166;2023-08-24T08:55:01;20.00;100.00
15630;DHT22;7914;50.842;0.166;2023-08-24T08:57:32;20.00;100.00
15630;DHT22;7914;50.842;0.166;2023-08-24T08:59:58;20.10;100.00
15630;DHT22;7914;50.842;0.166;2023-08-24T09:02:24;19.90;100.00
15630;DHT22;7914;50.842;0.166;2023-08-24T09:04:51;19.90;100.00
15630;DHT22;7914;50.842;0.166;2023-08-24T09:07:16;19.90;100.00
15630;DHT22;7914;50.842;0.166;2023-08-24T09:09:43;20.00;100.00
15630;DHT22;7914;50.842;0.166;2023-08-24T09:12:09;20.00;100.00
15630;DHT22;7914;50.842;0.166;2023-08-24T09:14:35;19.90;100.00
15630;DHT22;7914;50.842;0.166;2023-08-24T09:17:00;19.80;100.00
15630;DHT22;7914;50.842;0.166;2023-08-24T09:19:30;19.60;100.00
15630;DHT22;7914;50.842;0.166;2023-08-24T09:21:57;19.50;100.00
15630;DHT22;7914;50.842;0.166;2023-08-24T09:24:32;19.30;100.00
15630;DHT22;7914;50.842;0.166;2023-08-24T09:26:59;19.30;100.00
15630;DHT22;7914;50.842;0.166;2023-08-24T09:29:25;19.30;100.00
15630;DHT22;7914;50.842;0.166;2023-08-24T09:31:51;19.50;100.00
15630;DHT22;7914;50.842;0.166;2023-08-24T09:34:21;19.60;100.00
15630;DHT22;7914;50.842;0.166;2023-08-24T09:36:51;19.80;100.00
15630;DHT22;7914;50.842;0.166;2023-08-24T09:39:17;20.20;100.00
15630;DHT22;7914;50.842;0.166;2023-08-24T09:41:49;20.60;100.00
15630;DHT22;7914;50.842;0.166;2023-08-24T09:44:16;20.70;100.00
15630;DHT22;7914;50.842;0.166;2023-08-24T09:46:42;21.00;100.00
15630;DHT22;7914;50.842;0.166;2023-08-24T09:49:11;21.40;100.00
15630;DHT22;7914;50.842;0.166;2023-08-24T09:51:39;21.60;100.00
15630;DHT22;7914;50.842;0.166;2023-08-24T09:54:09;21.80;100.00
15630;DHT22;7914;50.842;0.166;2023-08-24T09:56:38;22.00;100.00
15630;DHT22;7914;50.842;0.166;2023-08-24T09:59:14;22.00;100.00
15630;DHT22;7914;50.842;0.166;2023-08-24T10:01:45;22.10;100.00
15630;DHT22;7914;50.842;0.166;2023-08-24T10:04:14;21.90;100.00
15630;DHT22;7914;50.842;0.166;2023-08-24T10:06:40;21.80;100.00
15630;DHT22;7914;50.842;0.166;2023-08-24T10:09:11;21.80;100.00
15630;DHT22;7914;50.842;0.166;2023-08-24T10:11:49;21.90;100.00
15630;DHT22;7914;50.842;0.166;2023-08-24T10:14:29;22.00;100.00
15630;DHT22;7914;50.842;0.166;2023-08-24T10:16:57;22.10;100.00
15630;DHT22;7914;50.842;0.166;2023-08-24T10:19:24;22.00;100.00
15630;DHT22;7914;50.842;0.166;2023-08-24T10:21:53;22.00;100.00
15630;DHT22;7914;50.842;0.166;2023-08-24T10:24:19;21.80;100.00
15630;DHT22;7914;50.842;0.166;2023-08-24T10:26:47;21.80;100.00
15630;DHT22;7914;50.842;0.166;2023-08-24T10:29:14;21.80;100.00
15630;DHT22;7914;50.842;0.166;2023-08-24T10:31:41;21.90;100.00
15630;DHT22;7914;50.842;0.166;2023-08-24T10:34:08;22.10;100.00
15630;DHT22;7914;50.842;0.166;2023-08-24T10:36:34;22.00;100.00
15630;DHT22;7914;50.842;0.166;2023-08-24T10:39:03;21.90;100.00
15630;DHT22;7914;50.842;0.166;2023-08-24T10:41:52;22.00;100.00
15630;DHT22;7914;50.842;0.166;2023-08-24T10:44:34;22.30;100.00
15630;DHT22;7914;50.842;0.166;2023-08-24T10:49:37;22.80;100.00
15630;DHT22;7914;50.842;0.166;2023-08-24T10:52:30;23.10;100.00
15630;DHT22;7914;50.842;0.166;2023-08-24T10:54:56;22.70;100.00
15630;DHT22;7914;50.842;0.166;2023-08-24T10:57:23;22.80;100.00
15630;DHT22;7914;50.842;0.166;2023-08-24T11:00:20;22.60;100.00
15630;DHT22;7914;50.842;0.166;2023-08-24T11:02:50;22.50;100.00
15630;DHT22;7914;50.842;0.166;2023-08-24T11:05:19;22.50;100.00
15630;DHT22;7914;50.842;0.166;2023-08-24T11:07:51;22.50;100.00
15630;DHT22;7914;50.842;0.166;2023-08-24T11:10:17;22.50;100.00
15630;DHT22;7914;50.842;0.166;2023-08-24T11:13:16;22.50;100.00
15630;DHT22;7914;50.842;0.166;2023-08-24T11:15:49;22.60;100.00
15630;DHT22;7914;50.842;0.166;2023-08-24T11:18:23;22.80;100.00
15630;DHT22;7914;50.842;0.166;2023-08-24T11:21:00;22.90;100.00
15630;DHT22;7914;50.842;0.166;2023-08-24T11:23:28;22.90;100.00
15630;DHT22;7914;50.842;0.166;2023-08-24T11:25:55;22.80;100.00
15630;DHT22;7914;50.842;0.166;2023-08-24T11:28:26;22.70;100.00
15630;DHT22;7914;50.842;0.166;2023-08-24T11:30:52;22.50;100.00
15630;DHT22;7914;50.842;0.166;2023-08-24T11:33:34;22.50;100.00
15630;DHT22;7914;50.842;0.166;2023-08-24T11:36:02;22.40;100.00
15630;DHT22;7914;50.842;0.166;2023-08-24T11:38:39;22.20;100.00
15630;DHT22;7914;50.842;0.166;2023-08-24T11:41:18;22.10;100.00
15630;DHT22;7914;50.842;0.166;2023-08-24T11:43:45;22.00;100.00
15630;DHT22;7914;50.842;0.166;2023-08-24T11:46:12;22.10;100.00
15630;DHT22;7914;50.842;0.166;2023-08-24T11:48:39;22.20;100.00
15630;DHT22;7914;50.842;0.166;2023-08-24T11:51:08;22.40;100.00
15630;DHT22;7914;50.842;0.166;2023-08-24T11:53:45;22.50;100.00
15630;DHT22;7914;50.842;0.166;2023-08-24T11:56:13;22.50;100.00
15630;DHT22;7914;50.842;0.166;2023-08-24T11:58:43;22.50;100.00
15630;DHT22;7914;50.842;0.166;2023-08-24T12:01:10;22.30;100.00
15630;DHT22;7914;50.842;0.166;2023-08-24T12:03:38;22.30;100.00
15630;DHT22;7914;50.842;0.166;2023-08-24T12:06:14;22.30;100.00
15630;DHT22;7914;50.842;0.166;2023-08-24T12:08:41;22.20;100.00
15630;DHT22;7914;50.842;0.166;2023-08-24T12:11:14;22.20;100.00
15630;DHT22;7914;50.842;0.166;2023-08-24T12:13:49;22.10;100.00
15630;DHT22;7914;50.842;0.166;2023-08-24T12:16:20;22.20;100.00
15630;DHT22;7914;50.842;0.166;2023-08-24T12:18:56;22.40;100.00
15630;DHT22;7914;50.842;0.166;2023-08-24T12:21:25;22.50;100.00
15630;DHT22;7914;50.842;0.166;2023-08-24T12:24:05;22.60;100.00
15630;DHT22;7914;50.842;0.166;2023-08-24T12:26:35;22.70;100.00
15630;DHT22;7914;50.842;0.166;2023-08-24T12:29:08;22.70;100.00
15630;DHT22;7914;50.842;0.166;2023-08-24T12:31:35;22.70;100.00
15630;DHT22;7914;50.842;0.166;2023-08-24T12:34:10;22.50;100.00
15630;DHT22;7914;50.842;0.166;2023-08-24T12:36:37;22.50;100.00
15630;DHT22;7914;50.842;0.166;2023-08-24T12:39:07;22.50;100.00
15630;DHT22;7914;50.842;0.166;2023-08-24T12:41:33;22.60;100.00
15630;DHT22;7914;50.842;0.166;2023-08-24T12:43:59;22.50;100.00
15630;DHT22;7914;50.842;0.166;2023-08-24T12:46:25;22.30;100.00
15630;DHT22;7914;50.842;0.166;2023-08-24T12:48:53;22.30;100.00
15630;DHT22;7914;50.842;0.166;2023-08-24T12:51:18;22.30;100.00
15630;DHT22;7914;50.842;0.166;2023-08-24T12:53:44;22.30;100.00
15630;DHT22;7914;50.842;0.166;2023-08-24T12:56:09;22.50;100.00
15630;DHT22;7914;50.842;0.166;2023-08-24T12:58:35;22.70;100.00
15630;DHT22;7914;50.842;0.166;2023-08-24T13:01:01;22.80;100.00
15630;DHT22;7914;50.842;0.166;2023-08-24T13:03:28;23.00;100.00
15630;DHT22;7914;50.842;0.166;2023-08-24T13:05:53;23.20;100.00
15630;DHT22;7914;50.842;0.166;2023-08-24T13:08:19;23.40;100.00
15630;DHT22;7914;50.842;0.166;2023-08-24T13:10:45;23.50;100.00
15630;DHT22;7914;50.842;0.166;2023-08-24T13:13:10;23.70;100.00
15630;DHT22;7914;50.842;0.166;2023-08-24T13:15:36;23.70;100.00
15630;DHT22;7914;50.842;0.166;2023-08-24T13:18:02;23.80;100.00
15630;DHT22;7914;50.842;0.166;2023-08-24T13:20:28;23.70;100.00
15630;DHT22;7914;50.842;0.166;2023-08-24T13:22:53;23.70;100.00
15630;DHT22;7914;50.842;0.166;2023-08-24T13:25:19;23.70;100.00
15630;DHT22;7914;50.842;0.166;2023-08-24T13:27:45;23.80;100.00
15630;DHT22;7914;50.842;0.166;2023-08-24T13:30:11;23.70;100.00
15630;DHT22;7914;50.842;0.166;2023-08-24T13:32:36;23.70;100.00
15630;DHT22;7914;50.842;0.166;2023-08-24T13:35:05;23.60;100.00
15630;DHT22;7914;50.842;0.166;2023-08-24T13:37:31;23.50;100.00
15630;DHT22;7914;50.842;0.166;2023-08-24T13:39:58;23.40;100.00
15630;DHT22;7914;50.842;0.166;2023-08-24T13:42:24;23.30;100.00
15630;DHT22;7914;50.842;0.166;2023-08-24T13:44:49;23.20;100.00
15630;DHT22;7914;50.842;0.166;2023-08-24T13:47:15;23.20;100.00
15630;DHT22;7914;50.842;0.166;2023-08-24T13:49:41;23.10;100.00
15630;DHT22;7914;50.842;0.166;2023-08-24T13:52:07;23.00;100.00
15630;DHT22;7914;50.842;0.166;2023-08-24T13:54:34;22.90;100.00
15630;DHT22;7914;50.842;0.166;2023-08-24T13:57:00;23.00;100.00
15630;DHT22;7914;50.842;0.166;2023-08-24T13:59:26;23.00;100.00
15630;DHT22;7914;50.842;0.166;2023-08-24T14:01:52;22.90;100.00
15630;DHT22;7914;50.842;0.166;2023-08-24T14:04:18;22.80;100.00
15630;DHT22;7914;50.842;0.166;2023-08-24T14:06:43;22.70;100.00
15630;DHT22;7914;50.842;0.166;2023-08-24T14:09:09;22.70;100.00
15630;DHT22;7914;50.842;0.166;2023-08-24T14:11:35;22.70;100.00
15630;DHT22;7914;50.842;0.166;2023-08-24T14:14:00;22.70;100.00
15630;DHT22;7914;50.842;0.166;2023-08-24T14:16:26;22.70;100.00
15630;DHT22;7914;50.842;0.166;2023-08-24T14:18:52;22.70;100.00
15630;DHT22;7914;50.842;0.166;2023-08-24T14:21:19;22.60;100.00
15630;DHT22;7914;50.842;0.166;2023-08-24T14:23:46;22.60;100.00
15630;DHT22;7914;50.842;0.166;2023-08-24T14:26:12;22.50;100.00
15630;DHT22;7914;50.842;0.166;2023-08-24T14:29:07;22.30;100.00
15630;DHT22;7914;50.842;0.166;2023-08-24T14:31:34;22.20;100.00
15630;DHT22;7914;50.842;0.166;2023-08-24T14:33:59;22.10;100.00
15630;DHT22;7914;50.842;0.166;2023-08-24T14:36:25;22.00;100.00
15630;DHT22;7914;50.842;0.166;2023-08-24T14:38:51;21.80;100.00
15630;DHT22;7914;50.842;0.166;2023-08-24T14:41:19;21.60;100.00
15630;DHT22;7914;50.842;0.166;2023-08-24T14:43:46;21.30;100.00
15630;DHT22;7914;50.842;0.166;2023-08-24T14:46:12;21.00;100.00
15630;DHT22;7914;50.842;0.166;2023-08-24T14:48:37;20.60;100.00
15630;DHT22;7914;50.842;0.166;2023-08-24T14:51:03;20.20;100.00
15630;DHT22;7914;50.842;0.166;2023-08-24T14:53:29;19.90;100.00
15630;DHT22;7914;50.842;0.166;2023-08-24T14:55:58;19.70;100.00
15630;DHT22;7914;50.842;0.166;2023-08-24T14:58:25;19.40;100.00
15630;DHT22;7914;50.842;0.166;2023-08-24T15:00:52;19.30;100.00
15630;DHT22;7914;50.842;0.166;2023-08-24T15:03:18;19.10;100.00
15630;DHT22;7914;50.842;0.166;2023-08-24T15:05:46;19.20;100.00
15630;DHT22;7914;50.842;0.166;2023-08-24T15:08:13;19.00;100.00
15630;DHT22;7914;50.842;0.166;2023-08-24T15:10:39;18.90;100.00
15630;DHT22;7914;50.842;0.166;2023-08-24T15:13:05;19.10;100.00
15630;DHT22;7914;50.842;0.166;2023-08-24T15:15:40;19.20;100.00
15630;DHT22;7914;50.842;0.166;2023-08-24T15:18:06;19.40;100.00
15630;DHT22;7914;50.842;0.166;2023-08-24T15:20:32;19.70;100.00
15630;DHT22;7914;50.842;0.166;2023-08-24T15:23:01;19.80;100.00
15630;DHT22;7914;50.842;0.166;2023-08-24T15:25:27;19.80;100.00
15630;DHT22;7914;50.842;0.166;2023-08-24T15:27:53;20.10;100.00
15630;DHT22;7914;50.842;0.166;2023-08-24T15:30:19;20.20;100.00
15630;DHT22;7914;50.842;0.166;2023-08-24T15:32:45;20.30;100.00
15630;DHT22;7914;50.842;0.166;2023-08-24T15:35:10;20.40;100.00
15630;DHT22;7914;50.842;0.166;2023-08-24T15:37:36;20.60;100.00
15630;DHT22;7914;50.842;0.166;2023-08-24T15:40:02;20.60;100.00